createdAt,value
2022-08-29T00:01:29.739Z,18.02
2022-08-29T00:04:00.047Z,17.93
2022-08-29T00:06:30.606Z,17.85
2022-08-29T00:08:59.856Z,17.79
2022-08-29T00:11:29.137Z,17.74
2022-08-29T00:13:59.864Z,17.77
2022-08-29T00:16:29.065Z,17.72
2022-08-29T00:18:58.397Z,17.86
2022-08-29T00:21:27.547Z,18.07
2022-08-29T00:23:56.649Z,18.00
2022-08-29T00:26:26.635Z,17.95
2022-08-29T00:29:00.662Z,17.91
2022-08-29T00:31:30.180Z,17.85
2022-08-29T00:33:59.492Z,17.82
2022-08-29T00:36:30.663Z,17.83
2022-08-29T00:39:00.374Z,17.97
2022-08-29T00:41:29.502Z,17.92
2022-08-29T00:44:00.120Z,18.03
2022-08-29T00:46:48.357Z,17.94
2022-08-29T00:49:30.169Z,18.00
2022-08-29T00:52:02.124Z,17.90
2022-08-29T00:54:32.212Z,17.99
2022-08-29T00:57:01.946Z,17.80
2022-08-29T00:59:37.793Z,17.77
2022-08-29T01:02:08.375Z,17.84
2022-08-29T01:04:39.566Z,17.79
2022-08-29T01:07:10.726Z,17.70
2022-08-29T01:09:42.802Z,17.76
2022-08-29T01:12:17.722Z,17.65
2022-08-29T01:14:53.646Z,17.68
2022-08-29T01:17:27.180Z,17.67
2022-08-29T01:20:01.678Z,17.66
2022-08-29T01:22:58.598Z,17.56
2022-08-29T01:25:34.334Z,17.57
2022-08-29T01:28:08.832Z,17.53
2022-08-29T01:30:38.186Z,17.48
2022-08-29T01:33:12.629Z,17.50
2022-08-29T01:35:42.004Z,17.53
2022-08-29T01:38:11.821Z,17.59
2022-08-29T01:40:42.928Z,17.55
2022-08-29T01:43:12.217Z,17.55
2022-08-29T01:45:42.459Z,17.61
2022-08-29T01:48:11.960Z,17.64
2022-08-29T01:50:41.400Z,17.61
2022-08-29T01:53:12.575Z,17.69
2022-08-29T01:55:44.763Z,17.72
2022-08-29T01:58:14.202Z,17.79
2022-08-29T02:00:44.274Z,17.74
2022-08-29T02:03:14.898Z,17.72
2022-08-29T02:05:46.021Z,17.63
2022-08-29T02:08:15.826Z,17.53
2022-08-29T02:10:47.512Z,17.52
2022-08-29T02:13:16.805Z,17.54
2022-08-29T02:15:46.403Z,17.57
2022-08-29T02:18:46.102Z,17.56
2022-08-29T02:21:19.532Z,17.52
2022-08-29T02:23:51.173Z,17.69
2022-08-29T02:26:22.943Z,17.71
2022-08-29T02:28:53.189Z,17.54
2022-08-29T02:31:26.822Z,17.49
2022-08-29T02:33:56.333Z,17.47
2022-08-29T02:36:27.283Z,17.56
2022-08-29T02:38:56.731Z,17.56
2022-08-29T02:41:27.421Z,17.53
2022-08-29T02:43:56.845Z,17.49
2022-08-29T02:46:27.125Z,17.54
2022-08-29T02:49:01.266Z,17.48
2022-08-29T02:51:34.455Z,17.42
2022-08-29T02:54:05.168Z,17.51
2022-08-29T02:56:36.882Z,17.72
2022-08-29T02:59:08.480Z,17.63
2022-08-29T03:01:40.740Z,17.56
2022-08-29T03:04:10.181Z,17.68
2022-08-29T03:06:39.642Z,17.80
2022-08-29T03:09:10.837Z,17.72
2022-08-29T03:11:41.749Z,17.59
2022-08-29T03:14:11.031Z,17.55
2022-08-29T03:16:45.037Z,17.49
2022-08-29T03:19:14.383Z,17.38
2022-08-29T03:21:45.819Z,17.37
2022-08-29T03:24:15.505Z,17.42
2022-08-29T03:26:48.409Z,17.40
2022-08-29T03:29:26.377Z,17.40
2022-08-29T03:31:58.784Z,17.46
2022-08-29T03:34:33.148Z,17.53
2022-08-29T03:37:02.702Z,17.46
2022-08-29T03:39:32.748Z,17.56
2022-08-29T03:42:03.427Z,17.54
2022-08-29T03:44:34.552Z,17.55
2022-08-29T03:47:04.671Z,17.57
2022-08-29T03:49:34.282Z,17.59
2022-08-29T03:52:05.107Z,17.58
2022-08-29T03:54:36.177Z,17.56
2022-08-29T03:57:08.145Z,17.41
2022-08-29T03:59:37.811Z,17.46
2022-08-29T04:02:07.311Z,17.43
2022-08-29T04:04:53.999Z,17.41
2022-08-29T04:07:26.290Z,17.47
2022-08-29T04:09:58.532Z,17.38
2022-08-29T04:12:31.254Z,17.46
2022-08-29T04:15:00.576Z,17.26
2022-08-29T04:17:45.555Z,17.24
2022-08-29T04:20:29.934Z,17.22
2022-08-29T04:23:00.501Z,17.32
2022-08-29T04:25:37.199Z,17.29
2022-08-29T04:28:14.525Z,17.22
2022-08-29T04:30:51.742Z,17.26
2022-08-29T04:33:24.747Z,17.25
2022-08-29T04:35:54.761Z,17.26
2022-08-29T04:38:24.206Z,17.35
2022-08-29T04:40:53.552Z,17.39
2022-08-29T04:43:24.288Z,17.49
2022-08-29T04:45:56.550Z,17.53
2022-08-29T04:48:26.444Z,17.57
2022-08-29T04:50:57.634Z,17.65
2022-08-29T04:53:31.230Z,17.70
2022-08-29T04:56:03.503Z,17.69
2022-08-29T04:58:34.786Z,17.68
2022-08-29T05:01:05.160Z,17.75
2022-08-29T05:03:38.438Z,17.87
2022-08-29T05:06:12.133Z,17.89
2022-08-29T05:08:44.001Z,18.01
2022-08-29T05:11:22.782Z,18.03
2022-08-29T05:13:53.979Z,17.97
2022-08-29T05:16:23.591Z,18.08
2022-08-29T05:18:53.070Z,18.15
2022-08-29T05:21:27.725Z,18.24
2022-08-29T05:23:57.662Z,18.32
2022-08-29T05:26:32.126Z,18.33
2022-08-29T05:29:02.827Z,18.39
2022-08-29T05:31:38.474Z,18.29
2022-08-29T05:34:32.032Z,18.40
2022-08-29T05:36:57.478Z,18.40
2022-08-29T05:39:27.001Z,18.38
2022-08-29T05:41:57.030Z,18.47
2022-08-29T05:44:34.901Z,18.53
2022-08-29T05:47:05.984Z,18.56
2022-08-29T05:49:38.040Z,18.60
2022-08-29T05:52:08.747Z,18.62
2022-08-29T05:54:41.216Z,18.71
2022-08-29T05:57:18.977Z,18.74
2022-08-29T05:59:52.493Z,18.75
2022-08-29T06:02:22.924Z,18.82
2022-08-29T06:04:53.135Z,18.94
2022-08-29T06:07:23.418Z,18.90
2022-08-29T06:09:53.104Z,18.99
2022-08-29T06:12:24.342Z,19.02
2022-08-29T06:14:55.026Z,19.09
2022-08-29T06:17:25.057Z,19.10
2022-08-29T06:19:57.317Z,19.19
2022-08-29T06:22:26.459Z,19.32
2022-08-29T06:24:57.705Z,19.38
2022-08-29T06:27:27.789Z,19.38
2022-08-29T06:30:01.746Z,19.44
2022-08-29T06:32:31.479Z,19.54
2022-08-29T06:35:01.992Z,19.53
2022-08-29T06:37:31.182Z,19.55
2022-08-29T06:40:00.416Z,19.43
2022-08-29T06:42:29.688Z,19.53
2022-08-29T06:45:00.428Z,19.68
2022-08-29T06:47:29.626Z,19.57
2022-08-29T06:49:58.803Z,19.52
2022-08-29T06:52:32.082Z,19.52
2022-08-29T06:55:01.407Z,19.60
2022-08-29T06:57:30.798Z,19.51
2022-08-29T07:00:21.429Z,19.57
2022-08-29T07:02:53.199Z,19.75
2022-08-29T07:08:25.219Z,19.97
2022-08-29T07:10:54.376Z,19.95
2022-08-29T07:13:23.488Z,19.95
2022-08-29T07:15:54.178Z,20.00
2022-08-29T07:18:23.396Z,20.10
2022-08-29T07:20:52.628Z,20.23
2022-08-29T07:23:22.739Z,20.31
2022-08-29T07:25:51.969Z,20.45
2022-08-29T07:28:21.671Z,20.63
2022-08-29T07:30:54.522Z,20.79
2022-08-29T07:33:23.937Z,20.90
2022-08-29T07:35:54.401Z,20.94
2022-08-29T07:38:23.687Z,21.01
2022-08-29T07:40:59.868Z,21.21
2022-08-29T07:43:30.792Z,21.44
2022-08-29T07:46:06.862Z,21.67
2022-08-29T07:48:36.528Z,21.87
2022-08-29T07:51:10.644Z,22.05
2022-08-29T07:53:40.517Z,22.30
2022-08-29T07:56:12.630Z,22.57
2022-08-29T07:58:42.890Z,22.87
2022-08-29T08:01:21.319Z,23.08
2022-08-29T08:03:52.381Z,23.28
2022-08-29T08:06:24.590Z,23.39
2022-08-29T08:08:57.206Z,23.50
2022-08-29T08:11:27.873Z,23.62
2022-08-29T08:13:58.682Z,23.74
2022-08-29T08:16:30.994Z,23.89
2022-08-29T08:19:00.313Z,24.05
2022-08-29T08:21:29.717Z,24.17
2022-08-29T08:23:59.361Z,24.27
2022-08-29T08:26:28.810Z,24.37
2022-08-29T08:28:58.311Z,24.56
2022-08-29T08:31:29.136Z,24.74
2022-08-29T08:33:58.905Z,24.98
2022-08-29T08:36:31.481Z,25.09
2022-08-29T08:39:01.445Z,25.26
2022-08-29T08:41:52.563Z,25.28
2022-08-29T08:45:03.965Z,25.05
2022-08-29T08:47:40.100Z,25.29
2022-08-29T08:50:18.175Z,25.67
2022-08-29T08:52:54.981Z,25.96
2022-08-29T08:55:35.929Z,26.13
2022-08-29T08:58:15.240Z,26.03
2022-08-29T09:00:50.702Z,26.03
2022-08-29T09:04:04.108Z,26.11
2022-08-29T09:06:57.531Z,26.45
2022-08-29T09:09:42.752Z,26.61
2022-08-29T09:12:28.885Z,26.72
2022-08-29T09:15:11.150Z,26.68
2022-08-29T09:17:49.830Z,26.74
2022-08-29T09:20:25.773Z,26.93
2022-08-29T09:23:03.148Z,27.17
2022-08-29T09:25:36.529Z,27.33
2022-08-29T09:28:09.141Z,27.51
2022-08-29T09:30:42.529Z,27.65
2022-08-29T09:33:14.645Z,28.00
2022-08-29T09:35:48.740Z,28.36
2022-08-29T09:38:25.496Z,28.59
2022-08-29T09:40:58.931Z,28.78
2022-08-29T09:43:32.080Z,28.80
2022-08-29T09:46:18.869Z,28.99
2022-08-29T09:48:51.814Z,29.16
2022-08-29T09:51:29.935Z,29.12
2022-08-29T09:54:16.762Z,29.01
2022-08-29T09:56:55.174Z,28.80
2022-08-29T09:59:29.500Z,28.52
2022-08-29T10:02:26.633Z,28.32
2022-08-29T10:05:00.735Z,28.06
2022-08-29T10:07:37.507Z,27.90
2022-08-29T10:10:17.538Z,27.87
2022-08-29T10:12:55.777Z,27.96
2022-08-29T10:15:50.072Z,27.78
2022-08-29T10:18:30.294Z,27.51
2022-08-29T10:21:24.379Z,27.53
2022-08-29T10:24:20.141Z,27.72
2022-08-29T10:27:02.517Z,27.92
2022-08-29T10:30:02.125Z,28.01
2022-08-29T10:32:50.137Z,28.18
2022-08-29T10:35:27.665Z,28.43
2022-08-29T10:38:01.254Z,28.59
2022-08-29T10:40:43.620Z,29.18
2022-08-29T10:43:38.237Z,29.58
2022-08-29T10:46:43.126Z,30.02
2022-08-29T10:49:27.960Z,30.16
2022-08-29T10:52:06.120Z,30.41
2022-08-29T10:54:52.228Z,30.25
2022-08-29T10:57:43.228Z,30.21
2022-08-29T11:00:19.144Z,29.69
2022-08-29T11:02:59.875Z,29.73
2022-08-29T11:05:40.013Z,30.46
2022-08-29T11:08:16.718Z,30.37
2022-08-29T11:10:52.413Z,29.45
2022-08-29T11:13:31.471Z,30.02
2022-08-29T11:16:11.592Z,30.46
2022-08-29T11:18:46.570Z,30.57
2022-08-29T11:21:29.829Z,30.69
2022-08-29T11:24:03.564Z,31.23
2022-08-29T11:26:55.596Z,31.34
2022-08-29T11:29:40.389Z,30.90
2022-08-29T11:32:21.753Z,31.31
2022-08-29T11:35:10.905Z,32.41
2022-08-29T11:38:26.088Z,33.18
2022-08-29T11:41:28.325Z,32.45
2022-08-29T11:44:14.362Z,31.23
2022-08-29T11:46:53.566Z,29.88
2022-08-29T11:49:45.533Z,28.79
2022-08-29T11:52:28.082Z,27.88
2022-08-29T11:55:36.784Z,27.26
2022-08-29T11:58:46.120Z,26.71
2022-08-29T12:02:02.907Z,26.38
2022-08-29T12:04:56.215Z,26.09
2022-08-29T12:07:37.722Z,25.92
2022-08-29T12:10:13.687Z,25.68
2022-08-29T12:12:48.981Z,25.58
2022-08-29T12:15:54.725Z,25.66
2022-08-29T12:18:53.556Z,25.67
2022-08-29T12:21:56.368Z,25.76
2022-08-29T12:24:41.670Z,25.81
2022-08-29T12:27:27.066Z,25.88
2022-08-29T12:29:56.682Z,25.89
2022-08-29T12:32:50.609Z,25.74
2022-08-29T12:36:03.838Z,25.54
2022-08-29T12:38:50.293Z,25.05
2022-08-29T12:41:46.764Z,24.80
2022-08-29T12:44:19.361Z,24.84
2022-08-29T12:46:55.505Z,24.54
2022-08-29T12:49:29.714Z,24.23
2022-08-29T12:52:02.993Z,24.26
2022-08-29T12:54:36.930Z,24.66
2022-08-29T12:57:11.162Z,24.76
2022-08-29T12:59:46.281Z,25.03
2022-08-29T13:02:27.334Z,25.11
2022-08-29T13:04:56.789Z,25.28
2022-08-29T13:07:29.499Z,25.53
2022-08-29T13:10:01.564Z,25.82
2022-08-29T13:12:34.509Z,26.06
2022-08-29T13:15:08.944Z,26.31
2022-08-29T13:17:41.027Z,26.54
2022-08-29T13:20:43.450Z,26.56
2022-08-29T13:23:29.652Z,26.61
2022-08-29T13:26:03.476Z,26.62
2022-08-29T13:28:43.086Z,26.49
2022-08-29T13:31:34.682Z,26.01
2022-08-29T13:34:20.932Z,25.83
2022-08-29T13:37:02.241Z,25.58
2022-08-29T13:39:45.927Z,25.21
2022-08-29T13:42:31.864Z,25.18
2022-08-29T13:45:24.271Z,25.19
2022-08-29T13:48:18.475Z,25.08
2022-08-29T13:53:22.096Z,24.84
2022-08-29T13:55:52.685Z,24.81
2022-08-29T13:58:23.694Z,24.50
2022-08-29T14:00:53.012Z,24.72
2022-08-29T14:03:36.142Z,25.04
2022-08-29T14:06:11.681Z,25.36
2022-08-29T14:08:45.140Z,25.47
2022-08-29T14:11:16.164Z,25.63
2022-08-29T14:13:45.746Z,25.58
2022-08-29T14:16:15.473Z,25.58
2022-08-29T14:18:44.777Z,25.56
2022-08-29T14:21:14.358Z,25.83
2022-08-29T14:23:43.934Z,26.16
2022-08-29T14:26:13.649Z,26.40
2022-08-29T14:28:48.005Z,26.49
2022-08-29T14:31:17.788Z,26.45
2022-08-29T14:33:47.145Z,26.76
2022-08-29T14:36:25.738Z,26.82
2022-08-29T14:38:59.229Z,26.75
2022-08-29T14:41:32.284Z,27.41
2022-08-29T14:44:04.683Z,28.17
2022-08-29T14:46:34.170Z,29.13
2022-08-29T14:49:04.352Z,29.72
2022-08-29T14:51:35.911Z,29.78
2022-08-29T14:54:07.660Z,30.08
2022-08-29T14:56:48.082Z,31.01
2022-08-29T14:59:21.713Z,30.91
2022-08-29T15:01:54.588Z,31.24
2022-08-29T15:04:35.278Z,31.59
2022-08-29T15:07:10.841Z,31.98
2022-08-29T15:09:43.931Z,31.50
2022-08-29T15:12:14.091Z,30.66
2022-08-29T15:14:45.274Z,29.91
2022-08-29T15:17:16.211Z,29.59
2022-08-29T15:22:36.201Z,30.00
2022-08-29T15:25:06.931Z,30.91
2022-08-29T15:27:36.141Z,31.48
2022-08-29T15:30:09.130Z,32.07
2022-08-29T15:32:39.552Z,33.14
2022-08-29T15:35:14.290Z,34.21
2022-08-29T15:37:44.694Z,35.14
2022-08-29T15:40:14.977Z,35.25
2022-08-29T15:42:45.312Z,36.24
2022-08-29T15:45:16.059Z,38.18
2022-08-29T15:47:46.611Z,39.43
2022-08-29T15:50:16.706Z,39.65
2022-08-29T15:52:46.265Z,39.97
2022-08-29T15:55:15.585Z,39.41
2022-08-29T15:57:51.055Z,39.05
2022-08-29T16:00:30.122Z,40.17
2022-08-29T16:03:03.447Z,39.45
2022-08-29T16:05:34.754Z,37.69
2022-08-29T16:08:04.613Z,37.57
2022-08-29T16:10:34.882Z,37.97
2022-08-29T16:13:05.195Z,37.84
2022-08-29T16:15:36.123Z,37.62
2022-08-29T16:18:06.915Z,38.03
2022-08-29T16:20:38.873Z,37.57
2022-08-29T16:23:10.266Z,37.69
2022-08-29T16:25:39.684Z,37.83
2022-08-29T16:28:10.777Z,37.22
2022-08-29T16:30:45.753Z,37.24
2022-08-29T16:33:15.899Z,37.25
2022-08-29T16:35:45.428Z,37.79
2022-08-29T16:38:14.960Z,38.65
2022-08-29T16:40:45.721Z,39.33
2022-08-29T16:43:17.424Z,39.47
2022-08-29T16:45:49.149Z,38.61
2022-08-29T16:48:19.210Z,37.94
2022-08-29T16:50:53.351Z,37.48
2022-08-29T16:53:25.642Z,36.16
2022-08-29T16:55:54.876Z,34.69
2022-08-29T16:58:44.892Z,35.14
2022-08-29T17:01:16.557Z,35.73
2022-08-29T17:03:47.056Z,35.23
2022-08-29T17:06:19.637Z,35.14
2022-08-29T17:08:49.069Z,35.12
2022-08-29T17:11:17.542Z,33.56
2022-08-29T17:13:45.789Z,31.37
2022-08-29T17:16:15.989Z,29.67
2022-08-29T17:18:45.878Z,28.36
2022-08-29T17:21:16.656Z,27.38
2022-08-29T17:23:46.593Z,26.61
2022-08-29T17:26:18.087Z,25.97
2022-08-29T17:28:49.133Z,25.42
2022-08-29T17:31:20.354Z,24.95
2022-08-29T17:33:49.756Z,24.51
2022-08-29T17:36:21.705Z,24.16
2022-08-29T17:38:56.676Z,23.80
2022-08-29T17:41:26.945Z,23.44
2022-08-29T17:43:56.519Z,23.15
2022-08-29T17:46:27.171Z,23.01
2022-08-29T17:48:56.641Z,22.74
2022-08-29T17:51:26.052Z,22.69
2022-08-29T17:53:55.939Z,22.43
2022-08-29T17:56:39.273Z,22.15
2022-08-29T17:59:14.394Z,22.00
2022-08-29T18:01:49.264Z,21.75
2022-08-29T18:04:19.454Z,21.61
2022-08-29T18:06:52.010Z,21.55
2022-08-29T18:09:25.682Z,21.41
2022-08-29T18:11:58.506Z,21.26
2022-08-29T18:14:32.177Z,21.18
2022-08-29T18:17:03.260Z,21.00
2022-08-29T18:19:32.868Z,20.98
2022-08-29T18:22:02.301Z,20.80
2022-08-29T18:24:32.023Z,20.54
2022-08-29T18:27:02.157Z,20.34
2022-08-29T18:29:31.587Z,20.39
2022-08-29T18:32:03.405Z,20.35
2022-08-29T18:34:34.220Z,20.40
2022-08-29T18:37:05.266Z,20.42
2022-08-29T18:39:34.591Z,20.35
2022-08-29T18:42:10.565Z,20.44
2022-08-29T18:44:49.909Z,20.38
2022-08-29T18:47:20.786Z,20.47
2022-08-29T18:50:07.752Z,20.37
2022-08-29T18:52:40.292Z,20.27
2022-08-29T18:55:15.824Z,20.22
2022-08-29T18:57:48.316Z,20.20
2022-08-29T19:00:19.357Z,20.09
2022-08-29T19:02:50.357Z,20.05
2022-08-29T19:05:20.179Z,20.02
2022-08-29T19:07:49.876Z,20.01
2022-08-29T19:10:20.002Z,19.90
2022-08-29T19:12:50.500Z,19.97
2022-08-29T19:15:22.641Z,19.89
2022-08-29T19:17:54.702Z,19.79
2022-08-29T19:20:45.493Z,19.64
2022-08-29T19:23:16.297Z,19.55
2022-08-29T19:25:45.928Z,19.28
2022-08-29T19:28:16.864Z,19.08
2022-08-29T19:30:46.566Z,18.93
2022-08-29T19:33:18.590Z,18.93
2022-08-29T19:35:50.922Z,18.87
2022-08-29T19:38:22.581Z,18.83
2022-08-29T19:40:56.565Z,18.87
2022-08-29T19:43:30.307Z,18.91
2022-08-29T19:46:00.834Z,18.96
2022-08-29T19:48:34.303Z,18.93
2022-08-29T19:51:10.265Z,18.93
2022-08-29T19:53:42.951Z,18.81
2022-08-29T19:56:17.042Z,18.75
2022-08-29T19:58:46.368Z,18.74
2022-08-29T20:01:19.641Z,18.75
2022-08-29T20:03:51.230Z,18.71
2022-08-29T20:06:24.241Z,18.73
2022-08-29T20:08:53.539Z,18.72
2022-08-29T20:11:29.943Z,18.71
2022-08-29T20:14:00.838Z,18.67
2022-08-29T20:16:33.906Z,18.63
2022-08-29T20:19:08.164Z,18.68
2022-08-29T20:21:38.661Z,18.72
2022-08-29T20:24:08.888Z,18.55
2022-08-29T20:26:41.379Z,18.35
2022-08-29T20:29:13.330Z,18.28
2022-08-29T20:31:42.912Z,18.16
2022-08-29T20:34:16.626Z,18.22
2022-08-29T20:37:05.741Z,18.13
2022-08-29T20:39:37.066Z,18.10
2022-08-29T20:42:09.199Z,18.25
2022-08-29T20:44:41.820Z,18.28
2022-08-29T20:47:15.257Z,18.32
2022-08-29T20:49:47.080Z,18.37
2022-08-29T20:52:20.066Z,18.29
2022-08-29T20:54:50.931Z,18.22
2022-08-29T20:57:21.492Z,18.13
2022-08-29T20:59:50.768Z,18.21
2022-08-29T21:02:22.353Z,18.22
2022-08-29T21:05:10.634Z,18.16
2022-08-29T21:07:42.207Z,18.16
2022-08-29T21:10:14.637Z,17.98
2022-08-29T21:12:43.850Z,17.85
2022-08-29T21:15:13.169Z,17.76
2022-08-29T21:17:42.378Z,17.78
2022-08-29T21:20:13.426Z,17.68
2022-08-29T21:22:42.714Z,17.59
2022-08-29T21:25:12.181Z,17.60
2022-08-29T21:27:41.469Z,17.56
2022-08-29T21:30:12.707Z,17.59
2022-08-29T21:32:41.933Z,17.47
2022-08-29T21:35:12.675Z,17.32
2022-08-29T21:37:42.165Z,17.28
2022-08-29T21:40:13.362Z,17.23
2022-08-29T21:42:42.764Z,17.21
2022-08-29T21:45:13.060Z,17.21
2022-08-29T21:47:42.502Z,17.16
2022-08-29T21:50:13.532Z,17.22
2022-08-29T21:52:44.300Z,17.24
2022-08-29T21:55:14.067Z,17.43
2022-08-29T21:57:58.111Z,17.36
2022-08-29T22:00:32.581Z,17.32
2022-08-29T22:03:03.753Z,17.32
2022-08-29T22:05:35.004Z,17.69
2022-08-29T22:08:09.898Z,17.59
2022-08-29T22:10:43.968Z,17.61
2022-08-29T22:13:13.151Z,17.62
2022-08-29T22:15:59.820Z,17.42
2022-08-29T22:18:29.113Z,17.54
2022-08-29T22:21:02.430Z,17.66
2022-08-29T22:23:31.980Z,17.52
2022-08-29T22:26:01.403Z,17.56
2022-08-29T22:28:30.545Z,17.57
2022-08-29T22:31:00.693Z,17.36
2022-08-29T22:33:30.099Z,17.27
2022-08-29T22:36:00.831Z,17.21
2022-08-29T22:38:30.169Z,17.19
2022-08-29T22:40:59.512Z,17.12
2022-08-29T22:43:29.203Z,17.32
2022-08-29T22:45:58.498Z,17.43
2022-08-29T22:48:27.617Z,17.21
2022-08-29T22:50:58.518Z,17.26
2022-08-29T22:53:29.266Z,17.27
2022-08-29T22:55:58.629Z,17.19
2022-08-29T22:58:27.740Z,17.09
2022-08-29T23:00:56.921Z,17.06
2022-08-29T23:03:26.162Z,17.12
2022-08-29T23:05:55.257Z,17.10
2022-08-29T23:08:25.431Z,17.05
2022-08-29T23:10:56.036Z,16.95
2022-08-29T23:13:25.290Z,16.94
2022-08-29T23:15:54.504Z,16.92
2022-08-29T23:18:23.693Z,16.85
2022-08-29T23:20:52.926Z,16.96
2022-08-29T23:23:22.070Z,16.99
2022-08-29T23:25:51.858Z,16.75
2022-08-29T23:28:22.453Z,16.62
2022-08-29T23:30:54.277Z,16.67
2022-08-29T23:33:25.007Z,16.56
2022-08-29T23:35:54.223Z,16.52
2022-08-29T23:38:24.072Z,16.43
2022-08-29T23:40:53.515Z,16.44
2022-08-29T23:43:24.648Z,16.51
2022-08-29T23:45:53.773Z,16.74
2022-08-29T23:48:26.063Z,16.56
2022-08-29T23:50:56.198Z,16.59
2022-08-29T23:53:25.653Z,16.75
2022-08-29T23:55:54.791Z,16.65
2022-08-29T23:58:25.458Z,16.59
